KBTP/BTP METAR and TAF weather

Enter ICAO airport designator
Station Type Date Time Source
KBTP METAR 2018/07/20 13:56 UTC NOAA

KBTP 201356Z AUTO 15008KT 10SM CLR 24/16 A3005 RMK AO2 SLP172 T02440161


Station Type Date Time Source
KBTP Decoded METAR 2018/07/20 13:56 UTC NOAA

Butler, Butler County Airport/K W Scholter Field, PA, United States (KBTP) 40-47N 079-57W
Jul 20, 2018 - 09:56 AM EDT / 2018.07.20 1356 UTC
Wind: from the SSE (150 degrees) at 9 MPH (8 KT):0
Visibility: 10 mile(s):0
Sky conditions: clear
Temperature: 75.9 F (24.4 C)
Dew Point: 61.0 F (16.1 C)
Relative Humidity: 59%
Pressure (altimeter): 30.05 in. Hg (1017 hPa)
ob: KBTP 201356Z AUTO 15008KT 10SM CLR 24/16 A3005 RMK AO2 SLP172 T02440161
cycle: 14

Station Type Date Time Source
KBTP TAF UTC NOAA

Error!


Example: see airport list